Skip to main content
INFL logo

INFL · Horizon Kinetics Inflation Beneficiaries ETF ETF

Alerts for INFL
$55.43 -0.20 (-0.36%) At close · Sep 4

Shares sold short and not yet covered, reported twice monthly. Days to cover is the reported short position divided by average daily volume.

INFL Latest Reported Short Interest

FINRA reported 49,119 INFL shares sold short as of the August 14, 2026 settlement date, an increase of 7,381 shares. Days to cover was 1.00 based on FINRA's reported average daily volume.

Official FINRA short-interest data · share counts are restated for subsequent splits of this listing

Short Interest History

Settlement Date Current Position Previous Position Change Days to Cover
2026-09-15 Scheduled
FINRA publishes Sep 24
2026-08-31 Scheduled
FINRA publishes Sep 10
2026-08-14 49,119 41,738 +7,381 1.00
2026-07-31 41,738 79,053 -37,315 1.00
2026-07-15 79,053 56,310 +22,743 1.00
2026-06-30 56,310 7,715 +48,595 1.00
2026-06-15 7,715 297,678 -289,963 1.00
2026-05-29 297,678 14,093 +283,585 1.00
2026-05-15 14,093 75,412 -61,319 1.00
2026-04-30 75,412 53,759 +21,653 1.00
2026-04-15 53,759 120,465 -66,706 1.00
2026-03-31 120,465 102,025 +18,440 1.00
2026-03-13 102,025 116,654 -14,629 1.00
2026-02-27 116,654 45,519 +71,135 1.00
2026-02-13 45,519 57,628 -12,109 1.00
2026-01-30 57,628 278,342 -220,714 1.00
2026-01-15 278,342 41,067 +237,275 1.15
2025-12-31 41,067 82,089 -41,022 1.00
2025-12-15 82,089 12,178 +69,911 1.10
2025-11-28 12,178 172,615 -160,437 1.00
2025-11-14 172,615 158,847 +13,768 1.65
2025-10-31 158,847 63,196 +95,651 1.00
2025-10-15 63,196 64,821 -1,625 1.00
2025-09-30 64,821 97,933 -33,112 1.00
2025-09-15 97,933 82,213 +15,720 1.00

Full FINRA short interest reporting calendar

Showing 1–23 of 23 settlements